Time;durP1;ratioP1;P1;durP2;ratioP2;P2;SDS_P1;SDS_P2;PMS_P1;PMS_P2;Temp;Humidity;BMP_temperature;BMP_pressure;BME280_temperature;BME280_humidity;BME280_pressure;Samples;Min_cycle;Max_cycle;Signal;HPM_P1;HPM_P2
2022/08/28 00:00:16;;;;;;;;;;;;;;;;;;1051880;28;3536;-57
2022/08/28 00:01:07;;;;;;;;;;;;;;;;;;1048576;28;4046;-56
2022/08/28 00:01:37;;;;;;;;;;;;;;;;;;1047892;28;3900;-55
2022/08/28 00:02:07;;;;;;;;;;;;;;;;;;1049073;28;2618;-57
2022/08/28 00:02:37;;;;;;;;;;;;;;;;;;1051991;28;3899;-53
2022/08/28 00:03:09;;;;;;;;;;;;;;;;;;1052768;28;3079;-53
2022/08/28 00:03:39;;;;;;;;;;;;;;;;;;1053257;28;4057;-55
2022/08/28 00:04:09;;;;;;;;;;;;;;;;;;1053676;28;1489;-54
2022/08/28 00:04:39;;;;;;;;;;;;;;;;;;1052066;28;4084;-55
2022/08/28 00:05:10;;;;;;;;;;;;;;;;;;1052051;28;2764;-55
2022/08/28 00:05:41;;;;;;;;;;;;;;;;;;1052648;28;4062;-56
2022/08/28 00:06:11;;;;;;;;;;;;;;;;;;1053938;28;2905;-55
2022/08/28 00:06:41;;;;;;;;;;;;;;;;;;1049838;28;3984;-52
2022/08/28 00:07:12;;;;;;;;;;;;;;;;;;1051475;28;3253;-56
2022/08/28 00:07:42;;;;;;;;;;;;;;;;;;1050959;28;3934;-56
2022/08/28 00:08:13;;;;;;;;;;;;;;;;;;1053458;28;2873;-56
2022/08/28 00:08:43;;;;;;;;;;;;;;;;;;1052892;28;3852;-56
2022/08/28 00:09:20;;;;;;;;;;;;;;;;;;1054618;28;3275;-55
2022/08/28 00:09:51;;;;;;;;;;;;;;;;;;1052989;28;4017;-54
2022/08/28 00:10:22;;;;;;;;;;;;;;;;;;1053946;28;3851;-55
2022/08/28 00:10:53;;;;;;;;;;;;;;;;;;1050946;28;5466;-57
2022/08/28 00:11:23;;;;;;;;;;;;;;;;;;1054109;28;3402;-54
2022/08/28 00:11:53;;;;;;;;;;;;;;;;;;1052104;28;3994;-55
2022/08/28 00:12:24;;;;;;;;;;;;;;;;;;1053699;28;3590;-50
2022/08/28 00:12:56;;;;;;;;;;;;;;;;;;1051701;28;4013;-53
2022/08/28 00:13:34;;;;;;;;;;;;;;;;;;1052145;28;4150;-54
2022/08/28 00:14:05;;;;;;;;;;;;;;;;;;1049274;28;3069;-56
2022/08/28 00:14:35;;;;;;;;;;;;;;;;;;1049184;28;3908;-57
2022/08/28 00:15:07;;;;;;;;;;;;;;;;;;1047108;28;3657;-54
2022/08/28 00:15:38;;;;;;;;;;;;;;;;;;1049537;28;4090;-51
2022/08/28 00:16:08;;;;;;;;;;;;;;;;;;1052827;28;3733;-57
2022/08/28 00:16:38;;;;;;;;;;;;;;;;;;1045399;28;4203;-56
2022/08/28 00:17:09;;;;;;;;;;;;;;;;;;1048940;28;3107;-54
2022/08/28 00:17:39;;;;;;;;;;;;;;;;;;1049336;28;4114;-55
2022/08/28 00:18:10;;;;;;;;;;;;;;;;;;1045847;28;3635;-51
2022/08/28 00:18:40;;;;;;;;;;;;;;;;;;1046940;28;4021;-56
2022/08/28 00:19:11;;;;;;;;;;;;;;;;;;1049519;28;4000;-56
2022/08/28 00:19:41;;;;;;;;;;;;;;;;;;1050166;28;3998;-51
2022/08/28 00:20:12;;;;;;;;;;;;;;;;;;1047987;28;3531;-53
2022/08/28 00:20:43;;;;;;;;;;;;;;;;;;1049743;28;3994;-53
2022/08/28 00:21:13;;;;;;;;;;;;;;;;;;1047442;28;2414;-55
2022/08/28 00:21:44;;;;;;;;;;;;;;;;;;1053106;28;3808;-56
2022/08/28 00:22:14;;;;;;;;;;;;;;;;;;1053151;28;2945;-55
2022/08/28 00:22:45;;;;;;;;;;;;;;;;;;1054207;28;3862;-56
2022/08/28 00:23:15;;;;;;;;;;;;;;;;;;1052855;28;3004;-53
2022/08/28 00:23:46;;;;;;;;;;;;;;;;;;1053098;28;4062;-56
2022/08/28 00:24:16;;;;;;;;;;;;;;;;;;1054049;28;3905;-53
2022/08/28 00:24:47;;;;;;;;;;;;;;;;;;1054313;28;3984;-56
2022/08/28 00:25:18;;;;;;;;;;;;;;;;;;1051695;28;2673;-54
2022/08/28 00:25:48;;;;;;;;;;;;;;;;;;1053658;28;4072;-55
2022/08/28 00:27:58;;;;;;;;;;;;;;;;;;1048397;28;3916;-57
2022/08/28 00:28:28;;;;;;;;;;;;;;;;;;1049614;28;4433;-55
2022/08/28 00:28:59;;;;;;;;;;;;;;;;;;1052222;28;3287;-55
2022/08/28 00:29:30;;;;;;;;;;;;;;;;;;1053540;28;4186;-55
2022/08/28 00:30:01;;;;;;;;;;;;;;;;;;1054579;28;2914;-56
2022/08/28 00:30:35;;;;;;;;;;;;;;;;;;1052894;28;3888;-52
2022/08/28 00:31:05;;;;;;;;;;;;;;;;;;1052708;28;2983;-57
2022/08/28 00:31:38;;;;;;;;;;;;;;;;;;1054721;28;4066;-56
2022/08/28 00:32:08;;;;;;;;;;;;;;;;;;1048455;28;2739;-54
2022/08/28 00:32:39;;;;;;;;;;;;;;;;;;1050187;28;3924;-52
2022/08/28 00:33:14;;;;;;;;;;;;;;;;;;1049498;28;3034;-56
2022/08/28 00:33:44;;;;;;;;;;;;;;;;;;1049489;28;4118;-51
2022/08/28 00:34:14;;;;;;;;;;;;;;;;;;1053839;28;3212;-56
2022/08/28 00:34:45;;;;;;;;;;;;;;;;;;1052885;28;4107;-54
2022/08/28 00:35:16;;;;;;;;;;;;;;;;;;1054375;28;2961;-54
2022/08/28 00:35:47;;;;;;;;;;;;;;;;;;1053939;28;3995;-56
2022/08/28 00:36:18;;;;;;;;;;;;;;;;;;1054733;28;3113;-57
2022/08/28 00:36:48;;;;;;;;;;;;;;;;;;1050101;28;3922;-54
2022/08/28 00:37:19;;;;;;;;;;;;;;;;;;1049660;28;2602;-55
2022/08/28 00:37:49;;;;;;;;;;;;;;;;;;1048044;28;4008;-54
2022/08/28 00:38:33;;;;;;;;;;;;;;;;;;1048957;28;2849;-53
2022/08/28 00:39:11;;;;;;;;;;;;;;;;;;1047058;28;3829;-51
2022/08/28 00:39:42;;;;;;;;;;;;;;;;;;1051146;28;3874;-55
2022/08/28 00:40:14;;;;;;;;;;;;;;;;;;1049770;28;1685;-56
2022/08/28 00:40:45;;;;;;;;;;;;;;;;;;1049308;28;4064;-53
2022/08/28 00:41:16;;;;;;;;;;;;;;;;;;1048915;28;3887;-53
2022/08/28 00:41:49;;;;;;;;;;;;;;;;;;1050003;28;4055;-56
2022/08/28 00:42:20;;;;;;;;;;;;;;;;;;1050005;28;2894;-53
2022/08/28 00:42:50;;;;;;;;;;;;;;;;;;1050618;28;3877;-56
2022/08/28 00:43:40;;;;;;;;;;;;;;;;;;1049385;28;3183;-55
2022/08/28 00:44:11;;;;;;;;;;;;;;;;;;1047578;28;3995;-52
2022/08/28 00:44:41;;;;;;;;;;;;;;;;;;1048821;28;4033;-57
2022/08/28 00:45:12;;;;;;;;;;;;;;;;;;1046511;28;3920;-56
2022/08/28 00:45:42;;;;;;;;;;;;;;;;;;1049599;28;4010;-54
2022/08/28 00:46:18;;;;;;;;;;;;;;;;;;1049450;28;2755;-54
2022/08/28 00:46:49;;;;;;;;;;;;;;;;;;1047005;28;4028;-54
2022/08/28 00:47:23;;;;;;;;;;;;;;;;;;1049585;28;2993;-50
2022/08/28 00:47:53;;;;;;;;;;;;;;;;;;1049812;28;4005;-54
2022/08/28 00:48:24;;;;;;;;;;;;;;;;;;1049728;28;2798;-54
2022/08/28 00:48:54;;;;;;;;;;;;;;;;;;1049865;28;3977;-56
2022/08/28 00:49:29;;;;;;;;;;;;;;;;;;1048694;28;3750;-56
2022/08/28 00:49:59;;;;;;;;;;;;;;;;;;1051566;28;3882;-55
2022/08/28 00:52:04;;;;;;;;;;;;;;;;;;1048528;28;4014;-53
2022/08/28 00:52:14;;;;;;;;;;;;;;;;;;1048907;28;3834;-56
2022/08/28 00:52:46;;;;;;;;;;;;;;;;;;1050125;28;3918;-56
2022/08/28 00:53:23;;;;;;;;;;;;;;;;;;1050344;28;1992;-54
2022/08/28 00:53:55;;;;;;;;;;;;;;;;;;1049780;28;4074;-52
2022/08/28 00:54:27;;;;;;;;;;;;;;;;;;1050372;28;2990;-56
2022/08/28 00:55:03;;;;;;;;;;;;;;;;;;1049625;28;3826;-57
2022/08/28 00:55:33;;;;;;;;;;;;;;;;;;1047520;28;4056;-55
2022/08/28 00:56:05;;;;;;;;;;;;;;;;;;1049275;28;3097;-54
2022/08/28 00:56:38;;;;;;;;;;;;;;;;;;1048292;28;3937;-54
2022/08/28 00:57:10;;;;;;;;;;;;;;;;;;1050431;28;1415;-52
2022/08/28 00:57:47;;;;;;;;;;;;;;;;;;1045771;28;4057;-54
2022/08/28 00:58:19;;;;;;;;;;;;;;;;;;1046062;28;3507;-54
2022/08/28 00:58:50;;;;;;;;;;;;;;;;;;1043687;28;3969;-57
2022/08/28 00:59:22;;;;;;;;;;;;;;;;;;1045133;28;4011;-56
2022/08/28 00:59:52;;;;;;;;;;;;;;;;;;1048256;28;4419;-54
2022/08/28 01:00:28;;;;;;;;;;;;;;;;;;1049459;28;3379;-56
2022/08/28 01:00:59;;;;;;;;;;;;;;;;;;1049028;28;3861;-55
2022/08/28 01:01:30;;;;;;;;;;;;;;;;;;1047207;28;3786;-54
2022/08/28 01:02:00;;;;;;;;;;;;;;;;;;1050488;28;2939;-51
2022/08/28 01:02:31;;;;;;;;;;;;;;;;;;1050272;28;3978;-53
2022/08/28 01:03:02;;;;;;;;;;;;;;;;;;1050617;28;3565;-55
2022/08/28 01:03:32;;;;;;;;;;;;;;;;;;1050280;28;3886;-56
2022/08/28 01:04:05;;;;;;;;;;;;;;;;;;1048934;28;3517;-56
2022/08/28 01:04:36;;;;;;;;;;;;;;;;;;1052305;28;3850;-54
2022/08/28 01:05:08;;;;;;;;;;;;;;;;;;1051059;28;2421;-54
2022/08/28 01:05:38;;;;;;;;;;;;;;;;;;1049482;28;3784;-52
2022/08/28 01:06:09;;;;;;;;;;;;;;;;;;1050634;28;2639;-53
2022/08/28 01:06:40;;;;;;;;;;;;;;;;;;1048589;28;4069;-56
2022/08/28 01:07:14;;;;;;;;;;;;;;;;;;1050285;28;1894;-56
2022/08/28 01:07:45;;;;;;;;;;;;;;;;;;1048263;28;4090;-54
2022/08/28 01:08:16;;;;;;;;;;;;;;;;;;1050400;28;3025;-55
2022/08/28 01:08:47;;;;;;;;;;;;;;;;;;1048265;28;4027;-53
2022/08/28 01:09:17;;;;;;;;;;;;;;;;;;1047167;28;3833;-51
2022/08/28 01:09:48;;;;;;;;;;;;;;;;;;1048621;28;3858;-53
2022/08/28 01:10:20;;;;;;;;;;;;;;;;;;1048882;28;3090;-54
2022/08/28 01:10:52;;;;;;;;;;;;;;;;;;1049239;28;4054;-56
2022/08/28 01:11:23;;;;;;;;;;;;;;;;;;1048520;28;3392;-56
2022/08/28 01:11:56;;;;;;;;;;;;;;;;;;1048507;28;4147;-52
2022/08/28 01:12:28;;;;;;;;;;;;;;;;;;1049317;28;3699;-53
2022/08/28 01:12:59;;;;;;;;;;;;;;;;;;1049626;28;4012;-52
2022/08/28 01:13:30;;;;;;;;;;;;;;;;;;1046918;28;3834;-55
2022/08/28 01:14:01;;;;;;;;;;;;;;;;;;1048784;28;2867;-52
2022/08/28 01:14:32;;;;;;;;;;;;;;;;;;1044254;28;4097;-55
2022/08/28 01:15:08;;;;;;;;;;;;;;;;;;1043843;28;2795;-56
2022/08/28 01:15:39;;;;;;;;;;;;;;;;;;1040982;28;3928;-55
2022/08/28 01:16:09;;;;;;;;;;;;;;;;;;1042737;28;2831;-55
2022/08/28 01:16:41;;;;;;;;;;;;;;;;;;1043593;28;3872;-53
2022/08/28 01:17:13;;;;;;;;;;;;;;;;;;1045154;28;2237;-57
2022/08/28 01:17:46;;;;;;;;;;;;;;;;;;1049275;28;4070;-56
2022/08/28 01:18:17;;;;;;;;;;;;;;;;;;1048254;28;3266;-53
2022/08/28 01:18:48;;;;;;;;;;;;;;;;;;1049206;28;4306;-55
2022/08/28 01:19:21;;;;;;;;;;;;;;;;;;1050369;28;2970;-56
2022/08/28 01:19:56;;;;;;;;;;;;;;;;;;1048742;28;4069;-56
2022/08/28 01:20:28;;;;;;;;;;;;;;;;;;1048668;28;3698;-54
2022/08/28 01:21:17;;;;;;;;;;;;;;;;;;1050765;28;3931;-55
2022/08/28 01:22:08;;;;;;;;;;;;;;;;;;1048500;28;4062;-52
2022/08/28 01:22:41;;;;;;;;;;;;;;;;;;1038808;28;4343;-52
2022/08/28 01:23:14;;;;;;;;;;;;;;;;;;1050849;28;2098;-54
2022/08/28 01:23:56;;;;;;;;;;;;;;;;;;1048860;28;4010;-55
2022/08/28 01:24:27;;;;;;;;;;;;;;;;;;1048229;28;5050;-56
2022/08/28 01:24:59;;;;;;;;;;;;;;;;;;1050634;28;1489;-54
2022/08/28 01:25:31;;;;;;;;;;;;;;;;;;1048584;28;4086;-51
2022/08/28 01:26:01;;;;;;;;;;;;;;;;;;1047908;28;3592;-56
2022/08/28 01:26:31;;;;;;;;;;;;;;;;;;1047721;28;3911;-56
2022/08/28 01:27:02;;;;;;;;;;;;;;;;;;1049179;28;3385;-56
2022/08/28 01:27:32;;;;;;;;;;;;;;;;;;1049147;28;3926;-56
2022/08/28 01:28:05;;;;;;;;;;;;;;;;;;1049168;28;2164;-53
2022/08/28 01:28:36;;;;;;;;;;;;;;;;;;1048286;28;4150;-55
2022/08/28 01:29:07;;;;;;;;;;;;;;;;;;1050468;28;1661;-56
2022/08/28 01:29:37;;;;;;;;;;;;;;;;;;1048854;28;4045;-57
2022/08/28 01:30:12;;;;;;;;;;;;;;;;;;1048466;28;3063;-57
2022/08/28 01:30:45;;;;;;;;;;;;;;;;;;1047974;28;4162;-55
2022/08/28 01:31:15;;;;;;;;;;;;;;;;;;1049930;28;3786;-56
2022/08/28 01:31:47;;;;;;;;;;;;;;;;;;1048826;28;4192;-54
2022/08/28 01:32:34;;;;;;;;;;;;;;;;;;1049577;28;2752;-56
2022/08/28 01:33:05;;;;;;;;;;;;;;;;;;1048256;28;3854;-53
2022/08/28 01:33:35;;;;;;;;;;;;;;;;;;1046111;28;4075;-58
2022/08/28 01:34:07;;;;;;;;;;;;;;;;;;1048572;28;3689;-55
2022/08/28 01:34:38;;;;;;;;;;;;;;;;;;1047909;28;3811;-54
2022/08/28 01:35:11;;;;;;;;;;;;;;;;;;1049767;28;1915;-56
2022/08/28 01:35:43;;;;;;;;;;;;;;;;;;1049240;28;4050;-54
2022/08/28 01:36:14;;;;;;;;;;;;;;;;;;1049432;28;3146;-56
2022/08/28 01:36:47;;;;;;;;;;;;;;;;;;1048288;28;4047;-56
2022/08/28 01:37:17;;;;;;;;;;;;;;;;;;1049566;28;3497;-56
2022/08/28 01:37:48;;;;;;;;;;;;;;;;;;1048386;28;4954;-56
2022/08/28 01:38:18;;;;;;;;;;;;;;;;;;1049499;28;3368;-53
2022/08/28 01:39:06;;;;;;;;;;;;;;;;;;1050547;28;4085;-55
2022/08/28 01:39:43;;;;;;;;;;;;;;;;;;1053461;28;4043;-56
2022/08/28 01:40:16;;;;;;;;;;;;;;;;;;1054126;28;2982;-56
2022/08/28 01:40:48;;;;;;;;;;;;;;;;;;1052212;28;3952;-57
2022/08/28 01:41:19;;;;;;;;;;;;;;;;;;1052727;28;3729;-57
2022/08/28 01:41:51;;;;;;;;;;;;;;;;;;1054394;28;4031;-53
2022/08/28 01:42:21;;;;;;;;;;;;;;;;;;1052475;28;2657;-53
2022/08/28 01:42:51;;;;;;;;;;;;;;;;;;1052539;28;3856;-54
2022/08/28 01:43:23;;;;;;;;;;;;;;;;;;1052752;28;3677;-54
2022/08/28 01:43:53;;;;;;;;;;;;;;;;;;1054381;28;4061;-56
2022/08/28 01:44:25;;;;;;;;;;;;;;;;;;1053575;28;2902;-54
2022/08/28 01:44:55;;;;;;;;;;;;;;;;;;1052536;28;4382;-56
2022/08/28 01:45:35;;;;;;;;;;;;;;;;;;1052636;28;3931;-56
2022/08/28 01:46:05;;;;;;;;;;;;;;;;;;1053190;28;3345;-55
2022/08/28 01:46:36;;;;;;;;;;;;;;;;;;1052521;28;4000;-53
2022/08/28 01:47:06;;;;;;;;;;;;;;;;;;1053427;28;1791;-55
2022/08/28 01:47:38;;;;;;;;;;;;;;;;;;1052389;28;4063;-53
2022/08/28 01:48:08;;;;;;;;;;;;;;;;;;1054139;28;2773;-56
2022/08/28 01:48:40;;;;;;;;;;;;;;;;;;1051412;28;4065;-52
2022/08/28 01:49:11;;;;;;;;;;;;;;;;;;1055058;28;2250;-55
2022/08/28 01:49:42;;;;;;;;;;;;;;;;;;1051119;28;4058;-55
2022/08/28 01:50:14;;;;;;;;;;;;;;;;;;1050294;28;1999;-54
2022/08/28 01:50:45;;;;;;;;;;;;;;;;;;1048810;28;4758;-56
2022/08/28 01:51:16;;;;;;;;;;;;;;;;;;1049323;28;2894;-53
2022/08/28 01:51:46;;;;;;;;;;;;;;;;;;1044137;28;4065;-54
2022/08/28 01:52:16;;;;;;;;;;;;;;;;;;1043068;28;3580;-55
2022/08/28 01:52:47;;;;;;;;;;;;;;;;;;1044487;28;4045;-55
2022/08/28 01:53:21;;;;;;;;;;;;;;;;;;1045231;28;2935;-52
2022/08/28 01:53:51;;;;;;;;;;;;;;;;;;1048106;28;3907;-53
2022/08/28 01:54:22;;;;;;;;;;;;;;;;;;1052752;28;2916;-53
2022/08/28 01:54:52;;;;;;;;;;;;;;;;;;1052505;28;4025;-55
2022/08/28 01:55:22;;;;;;;;;;;;;;;;;;1053251;28;3618;-53
2022/08/28 01:55:54;;;;;;;;;;;;;;;;;;1046829;28;4099;-56
2022/08/28 01:56:24;;;;;;;;;;;;;;;;;;1046586;28;3732;-51
2022/08/28 01:56:55;;;;;;;;;;;;;;;;;;1047538;28;4077;-57
2022/08/28 01:57:25;;;;;;;;;;;;;;;;;;1048088;28;3603;-55
2022/08/28 01:57:55;;;;;;;;;;;;;;;;;;1052983;28;3991;-54
2022/08/28 01:58:27;;;;;;;;;;;;;;;;;;1054175;28;3740;-55
2022/08/28 01:58:57;;;;;;;;;;;;;;;;;;1052700;28;3993;-52
2022/08/28 01:59:27;;;;;;;;;;;;;;;;;;1053809;28;3803;-55
2022/08/28 01:59:58;;;;;;;;;;;;;;;;;;1051652;28;3084;-55
2022/08/28 02:00:29;;;;;;;;;;;;;;;;;;1053585;28;3959;-56
2022/08/28 02:00:59;;;;;;;;;;;;;;;;;;1052941;28;4067;-52
2022/08/28 02:01:29;;;;;;;;;;;;;;;;;;1051458;28;3878;-55
2022/08/28 02:02:00;;;;;;;;;;;;;;;;;;1051716;28;3709;-55
2022/08/28 02:02:30;;;;;;;;;;;;;;;;;;1053174;28;3830;-54
2022/08/28 02:03:01;;;;;;;;;;;;;;;;;;1053460;28;2621;-53
2022/08/28 02:03:32;;;;;;;;;;;;;;;;;;1053490;28;3806;-56
2022/08/28 02:04:03;;;;;;;;;;;;;;;;;;1054477;28;2794;-54
2022/08/28 02:04:34;;;;;;;;;;;;;;;;;;1051516;28;3912;-56
2022/08/28 02:05:04;;;;;;;;;;;;;;;;;;1053960;28;3658;-50
2022/08/28 02:05:35;;;;;;;;;;;;;;;;;;1051268;28;3863;-56
2022/08/28 02:06:05;;;;;;;;;;;;;;;;;;1054675;28;2751;-52
2022/08/28 02:06:36;;;;;;;;;;;;;;;;;;1051132;28;4177;-55
2022/08/28 02:07:07;;;;;;;;;;;;;;;;;;1054463;28;2121;-52
2022/08/28 02:07:37;;;;;;;;;;;;;;;;;;1051911;28;3879;-52
2022/08/28 02:08:07;;;;;;;;;;;;;;;;;;1055105;28;1435;-56
2022/08/28 02:08:38;;;;;;;;;;;;;;;;;;1047227;28;3887;-53
2022/08/28 02:09:08;;;;;;;;;;;;;;;;;;1050909;28;2824;-55
2022/08/28 02:09:38;;;;;;;;;;;;;;;;;;1046928;28;3888;-54
2022/08/28 02:10:10;;;;;;;;;;;;;;;;;;1050282;28;1740;-56
2022/08/28 02:10:42;;;;;;;;;;;;;;;;;;1053271;28;4514;-55
2022/08/28 02:11:12;;;;;;;;;;;;;;;;;;1054959;28;2033;-52
2022/08/28 02:11:43;;;;;;;;;;;;;;;;;;1052740;28;4202;-54
2022/08/28 02:12:14;;;;;;;;;;;;;;;;;;1052092;28;3581;-53
2022/08/28 02:12:44;;;;;;;;;;;;;;;;;;1053336;28;3912;-55
2022/08/28 02:13:15;;;;;;;;;;;;;;;;;;1048976;28;2633;-55
2022/08/28 02:13:45;;;;;;;;;;;;;;;;;;1048430;28;3803;-53
2022/08/28 02:14:15;;;;;;;;;;;;;;;;;;1044951;28;2928;-53
2022/08/28 02:14:46;;;;;;;;;;;;;;;;;;1045002;28;4072;-54
2022/08/28 02:15:16;;;;;;;;;;;;;;;;;;1049025;28;3321;-54
2022/08/28 02:15:47;;;;;;;;;;;;;;;;;;1048113;28;3915;-54
2022/08/28 02:16:18;;;;;;;;;;;;;;;;;;1052369;28;3263;-54
2022/08/28 02:16:48;;;;;;;;;;;;;;;;;;1053341;28;4055;-56
2022/08/28 02:17:19;;;;;;;;;;;;;;;;;;1053377;28;2929;-53
2022/08/28 02:17:49;;;;;;;;;;;;;;;;;;1053371;28;4132;-55
2022/08/28 02:18:19;;;;;;;;;;;;;;;;;;1051904;28;3741;-53
2022/08/28 02:18:50;;;;;;;;;;;;;;;;;;1052794;28;3910;-54
2022/08/28 02:19:21;;;;;;;;;;;;;;;;;;1053980;28;2908;-54
2022/08/28 02:19:51;;;;;;;;;;;;;;;;;;1052313;28;3952;-51
2022/08/28 02:20:22;;;;;;;;;;;;;;;;;;1048878;28;2925;-55
2022/08/28 02:20:52;;;;;;;;;;;;;;;;;;1049035;28;5118;-51
2022/08/28 02:21:24;;;;;;;;;;;;;;;;;;1049122;28;3069;-55
2022/08/28 02:21:54;;;;;;;;;;;;;;;;;;1047760;28;3916;-54
2022/08/28 02:22:24;;;;;;;;;;;;;;;;;;1052901;28;3201;-54
2022/08/28 02:22:56;;;;;;;;;;;;;;;;;;1053355;28;3819;-53
2022/08/28 02:23:26;;;;;;;;;;;;;;;;;;1053140;28;2883;-52
2022/08/28 02:23:57;;;;;;;;;;;;;;;;;;1052161;28;3710;-54
2022/08/28 02:24:27;;;;;;;;;;;;;;;;;;1052354;28;3918;-52
2022/08/28 02:24:57;;;;;;;;;;;;;;;;;;1054119;28;2811;-52
2022/08/28 02:25:28;;;;;;;;;;;;;;;;;;1051277;28;4060;-52
2022/08/28 02:25:58;;;;;;;;;;;;;;;;;;1053759;28;2612;-56
2022/08/28 02:26:30;;;;;;;;;;;;;;;;;;1051113;28;4258;-55
2022/08/28 02:27:01;;;;;;;;;;;;;;;;;;1054484;28;2783;-51
2022/08/28 02:27:31;;;;;;;;;;;;;;;;;;1052863;28;3926;-51
2022/08/28 02:28:02;;;;;;;;;;;;;;;;;;1054537;28;3808;-54
2022/08/28 02:28:32;;;;;;;;;;;;;;;;;;1052615;28;3927;-57
2022/08/28 02:29:03;;;;;;;;;;;;;;;;;;1053427;28;2876;-55
2022/08/28 02:29:33;;;;;;;;;;;;;;;;;;1054706;28;4448;-54
2022/08/28 02:30:04;;;;;;;;;;;;;;;;;;1052271;28;2804;-56
2022/08/28 02:30:35;;;;;;;;;;;;;;;;;;1054008;28;4114;-54
2022/08/28 02:31:08;;;;;;;;;;;;;;;;;;1054036;28;1744;-55
2022/08/28 02:31:38;;;;;;;;;;;;;;;;;;1052488;28;4052;-54
2022/08/28 02:32:08;;;;;;;;;;;;;;;;;;1048912;28;2937;-54
2022/08/28 02:32:38;;;;;;;;;;;;;;;;;;1048316;28;3919;-52
2022/08/28 02:33:09;;;;;;;;;;;;;;;;;;1050267;28;2786;-56
2022/08/28 02:33:46;;;;;;;;;;;;;;;;;;1047729;28;4076;-56
2022/08/28 02:34:17;;;;;;;;;;;;;;;;;;1053385;28;3129;-57
2022/08/28 02:34:47;;;;;;;;;;;;;;;;;;1053816;28;3865;-56
2022/08/28 02:35:18;;;;;;;;;;;;;;;;;;1052746;28;2868;-55
2022/08/28 02:35:49;;;;;;;;;;;;;;;;;;1052997;28;4029;-56
2022/08/28 02:36:19;;;;;;;;;;;;;;;;;;1052953;28;3728;-55
2022/08/28 02:36:49;;;;;;;;;;;;;;;;;;1054303;28;4088;-51
2022/08/28 02:37:20;;;;;;;;;;;;;;;;;;1053363;28;2635;-56
2022/08/28 02:37:50;;;;;;;;;;;;;;;;;;1048449;28;3817;-54
2022/08/28 02:38:21;;;;;;;;;;;;;;;;;;1049091;28;2849;-54
2022/08/28 02:39:05;;;;;;;;;;;;;;;;;;1048069;28;3983;-54
2022/08/28 02:39:43;;;;;;;;;;;;;;;;;;1048688;28;4403;-54
2022/08/28 02:40:14;;;;;;;;;;;;;;;;;;1049198;28;3616;-52
2022/08/28 02:40:44;;;;;;;;;;;;;;;;;;1048359;28;4027;-51
2022/08/28 02:41:15;;;;;;;;;;;;;;;;;;1048623;28;3682;-53
2022/08/28 02:41:45;;;;;;;;;;;;;;;;;;1048479;28;4042;-53
2022/08/28 02:42:16;;;;;;;;;;;;;;;;;;1049524;28;3705;-56
2022/08/28 02:42:46;;;;;;;;;;;;;;;;;;1047805;28;4166;-50
2022/08/28 02:43:16;;;;;;;;;;;;;;;;;;1048973;28;2924;-52
2022/08/28 02:43:46;;;;;;;;;;;;;;;;;;1048601;28;4538;-50
2022/08/28 02:44:17;;;;;;;;;;;;;;;;;;1048645;28;2809;-56
2022/08/28 02:44:47;;;;;;;;;;;;;;;;;;1046559;28;3866;-54
2022/08/28 02:45:18;;;;;;;;;;;;;;;;;;1043795;28;2988;-51
2022/08/28 02:45:48;;;;;;;;;;;;;;;;;;1044519;28;4133;-52
2022/08/28 02:46:18;;;;;;;;;;;;;;;;;;1049602;28;2968;-54
2022/08/28 02:46:49;;;;;;;;;;;;;;;;;;1047301;28;4442;-55
2022/08/28 02:47:19;;;;;;;;;;;;;;;;;;1047591;28;2692;-53
2022/08/28 02:47:50;;;;;;;;;;;;;;;;;;1049793;28;3897;-55
2022/08/28 02:48:20;;;;;;;;;;;;;;;;;;1048947;28;2888;-53
2022/08/28 02:48:58;;;;;;;;;;;;;;;;;;1049900;28;5012;-52
2022/08/28 02:49:29;;;;;;;;;;;;;;;;;;1048708;28;4117;-55
2022/08/28 02:50:00;;;;;;;;;;;;;;;;;;1049982;28;1571;-56
2022/08/28 02:50:30;;;;;;;;;;;;;;;;;;1049093;28;4089;-54
2022/08/28 02:51:02;;;;;;;;;;;;;;;;;;1050109;28;1591;-50
2022/08/28 02:51:34;;;;;;;;;;;;;;;;;;1048130;28;4071;-57
2022/08/28 02:52:05;;;;;;;;;;;;;;;;;;1049148;28;2315;-51
2022/08/28 02:52:36;;;;;;;;;;;;;;;;;;1048758;28;4067;-52
2022/08/28 02:53:06;;;;;;;;;;;;;;;;;;1048748;28;2702;-53
2022/08/28 02:53:37;;;;;;;;;;;;;;;;;;1047687;28;4093;-51
2022/08/28 02:54:08;;;;;;;;;;;;;;;;;;1048128;28;2909;-52
2022/08/28 02:54:38;;;;;;;;;;;;;;;;;;1048928;28;4272;-53
2022/08/28 02:55:11;;;;;;;;;;;;;;;;;;1049426;28;2645;-52
2022/08/28 02:55:41;;;;;;;;;;;;;;;;;;1047519;28;3960;-50
2022/08/28 02:56:11;;;;;;;;;;;;;;;;;;1049211;28;3900;-54
2022/08/28 02:56:42;;;;;;;;;;;;;;;;;;1046786;28;4944;-53
2022/08/28 02:57:13;;;;;;;;;;;;;;;;;;1047907;28;4109;-54
2022/08/28 02:57:44;;;;;;;;;;;;;;;;;;1045862;28;4086;-52
2022/08/28 02:58:14;;;;;;;;;;;;;;;;;;1047588;28;4069;-56
2022/08/28 02:58:44;;;;;;;;;;;;;;;;;;1048522;28;3765;-53
2022/08/28 02:59:14;;;;;;;;;;;;;;;;;;1049113;28;3685;-55
2022/08/28 02:59:46;;;;;;;;;;;;;;;;;;1049195;28;3930;-55
2022/08/28 03:00:22;;;;;;;;;;;;;;;;;;1049389;28;2864;-56
2022/08/28 03:00:52;;;;;;;;;;;;;;;;;;1049601;28;4076;-54
2022/08/28 03:01:23;;;;;;;;;;;;;;;;;;1049007;28;3577;-54
2022/08/28 03:01:53;;;;;;;;;;;;;;;;;;1048599;28;3869;-54
2022/08/28 03:02:24;;;;;;;;;;;;;;;;;;1049538;28;3789;-53
2022/08/28 03:02:54;;;;;;;;;;;;;;;;;;1048998;28;4031;-54
2022/08/28 03:03:25;;;;;;;;;;;;;;;;;;1048285;28;3562;-52
2022/08/28 03:03:56;;;;;;;;;;;;;;;;;;1047229;28;3787;-55
2022/08/28 03:04:26;;;;;;;;;;;;;;;;;;1049869;28;3986;-56
2022/08/28 03:04:58;;;;;;;;;;;;;;;;;;1048453;28;3764;-53
2022/08/28 03:05:28;;;;;;;;;;;;;;;;;;1046271;28;4040;-56
2022/08/28 03:06:00;;;;;;;;;;;;;;;;;;1049931;28;3042;-55
2022/08/28 03:06:30;;;;;;;;;;;;;;;;;;1047271;28;3882;-54
2022/08/28 03:07:01;;;;;;;;;;;;;;;;;;1049019;28;3244;-55
2022/08/28 03:07:31;;;;;;;;;;;;;;;;;;1047952;28;4105;-52
2022/08/28 03:08:02;;;;;;;;;;;;;;;;;;1048657;28;2569;-54
2022/08/28 03:08:32;;;;;;;;;;;;;;;;;;1048495;28;4043;-53
2022/08/28 03:09:03;;;;;;;;;;;;;;;;;;1049169;28;2121;-52
2022/08/28 03:09:34;;;;;;;;;;;;;;;;;;1048627;28;4250;-52
2022/08/28 03:10:06;;;;;;;;;;;;;;;;;;1048774;28;2037;-52
2022/08/28 03:10:36;;;;;;;;;;;;;;;;;;1047463;28;3983;-56
2022/08/28 03:11:06;;;;;;;;;;;;;;;;;;1049641;28;2805;-51
2022/08/28 03:11:36;;;;;;;;;;;;;;;;;;1051139;28;3902;-51
2022/08/28 03:12:09;;;;;;;;;;;;;;;;;;1053061;28;2852;-55
2022/08/28 03:12:39;;;;;;;;;;;;;;;;;;1051589;28;4038;-55
2022/08/28 03:13:10;;;;;;;;;;;;;;;;;;1052409;28;3177;-54
2022/08/28 03:13:41;;;;;;;;;;;;;;;;;;1051184;28;3888;-51
2022/08/28 03:14:11;;;;;;;;;;;;;;;;;;1049568;28;2946;-54
2022/08/28 03:14:42;;;;;;;;;;;;;;;;;;1048351;28;3879;-53
2022/08/28 03:15:12;;;;;;;;;;;;;;;;;;1048587;28;2843;-55
2022/08/28 03:15:46;;;;;;;;;;;;;;;;;;1049342;28;4276;-56
2022/08/28 03:16:16;;;;;;;;;;;;;;;;;;1049256;28;2851;-54
2022/08/28 03:16:47;;;;;;;;;;;;;;;;;;1047187;28;4033;-55
2022/08/28 03:17:18;;;;;;;;;;;;;;;;;;1049761;28;3344;-52
2022/08/28 03:17:48;;;;;;;;;;;;;;;;;;1048591;28;4010;-54
2022/08/28 03:18:18;;;;;;;;;;;;;;;;;;1047047;28;3217;-57
2022/08/28 03:18:49;;;;;;;;;;;;;;;;;;1048269;28;3881;-52
2022/08/28 03:19:19;;;;;;;;;;;;;;;;;;1048927;28;3803;-52
2022/08/28 03:19:49;;;;;;;;;;;;;;;;;;1048014;28;4058;-56
2022/08/28 03:20:20;;;;;;;;;;;;;;;;;;1048854;28;3033;-51
2022/08/28 03:20:50;;;;;;;;;;;;;;;;;;1048661;28;4026;-56
2022/08/28 03:21:20;;;;;;;;;;;;;;;;;;1049235;28;2628;-54
2022/08/28 03:21:51;;;;;;;;;;;;;;;;;;1048673;28;4072;-53
2022/08/28 03:23:24;;;;;;;;;;;;;;;;;;1047876;28;3335;-54
2022/08/28 03:23:27;;;;;;;;;;;;;;;;;;1048232;28;4008;-55
2022/08/28 03:23:57;;;;;;;;;;;;;;;;;;1048861;28;3647;-54
2022/08/28 03:24:28;;;;;;;;;;;;;;;;;;1047570;28;4052;-53
2022/08/28 03:24:58;;;;;;;;;;;;;;;;;;1050205;28;2797;-55
2022/08/28 03:25:29;;;;;;;;;;;;;;;;;;1047625;28;3996;-51
2022/08/28 03:26:00;;;;;;;;;;;;;;;;;;1050427;28;1580;-52
2022/08/28 03:26:31;;;;;;;;;;;;;;;;;;1048310;28;3983;-54
2022/08/28 03:27:01;;;;;;;;;;;;;;;;;;1049273;28;3510;-55
2022/08/28 03:27:31;;;;;;;;;;;;;;;;;;1049706;28;3942;-52
2022/08/28 03:28:02;;;;;;;;;;;;;;;;;;1048366;28;3151;-56
2022/08/28 03:28:42;;;;;;;;;;;;;;;;;;1047065;28;3925;-56
2022/08/28 03:29:13;;;;;;;;;;;;;;;;;;1048735;28;3771;-53
2022/08/28 03:29:43;;;;;;;;;;;;;;;;;;1041180;28;3904;-53
2022/08/28 03:30:13;;;;;;;;;;;;;;;;;;1042992;28;3000;-54
2022/08/28 03:30:44;;;;;;;;;;;;;;;;;;1049493;28;3957;-55
2022/08/28 03:31:16;;;;;;;;;;;;;;;;;;1048407;28;3661;-54
2022/08/28 03:31:47;;;;;;;;;;;;;;;;;;1049218;28;4038;-55
2022/08/28 03:32:17;;;;;;;;;;;;;;;;;;1048057;28;3615;-52
2022/08/28 03:32:47;;;;;;;;;;;;;;;;;;1049595;28;3907;-55
2022/08/28 03:33:18;;;;;;;;;;;;;;;;;;1049277;28;3761;-55
2022/08/28 03:33:49;;;;;;;;;;;;;;;;;;1048044;28;3948;-54
2022/08/28 03:34:20;;;;;;;;;;;;;;;;;;1049353;28;3591;-54
2022/08/28 03:34:50;;;;;;;;;;;;;;;;;;1050046;28;4204;-57
2022/08/28 03:35:20;;;;;;;;;;;;;;;;;;1049080;28;3830;-55
2022/08/28 03:35:51;;;;;;;;;;;;;;;;;;1048096;28;4107;-54
2022/08/28 03:36:23;;;;;;;;;;;;;;;;;;1049270;28;3851;-52
2022/08/28 03:36:53;;;;;;;;;;;;;;;;;;1048972;28;4059;-51
2022/08/28 03:37:24;;;;;;;;;;;;;;;;;;1049432;28;3773;-52
2022/08/28 03:37:54;;;;;;;;;;;;;;;;;;1049235;28;4030;-55
2022/08/28 03:38:25;;;;;;;;;;;;;;;;;;1048091;28;3728;-54
2022/08/28 03:39:10;;;;;;;;;;;;;;;;;;1049992;28;4062;-55
2022/08/28 03:39:47;;;;;;;;;;;;;;;;;;1053811;28;3841;-55
2022/08/28 03:40:19;;;;;;;;;;;;;;;;;;1054069;28;2923;-55
2022/08/28 03:40:50;;;;;;;;;;;;;;;;;;1053549;28;3874;-56
2022/08/28 03:41:22;;;;;;;;;;;;;;;;;;1054009;28;4177;-54
2022/08/28 03:41:52;;;;;;;;;;;;;;;;;;1053527;28;5358;-54
2022/08/28 03:42:22;;;;;;;;;;;;;;;;;;1047611;28;3841;-55